sensor_id;sensor_type;location;lat;lon;timestamp;P1;durP1;ratioP1;P2;durP2;ratioP2
75847;SDS011;65750;47.540;19.090;2023-02-14T00:00:35;8.10;;;4.63;;
75847;SDS011;65750;47.540;19.090;2023-02-14T00:03:02;7.47;;;4.70;;
75847;SDS011;65750;47.540;19.090;2023-02-14T00:05:30;7.57;;;5.05;;
75847;SDS011;65750;47.540;19.090;2023-02-14T00:07:57;9.02;;;4.65;;
75847;SDS011;65750;47.540;19.090;2023-02-14T00:10:25;6.87;;;4.43;;
75847;SDS011;65750;47.540;19.090;2023-02-14T00:12:52;7.60;;;4.37;;
75847;SDS011;65750;47.540;19.090;2023-02-14T00:15:19;7.47;;;4.55;;
75847;SDS011;65750;47.540;19.090;2023-02-14T00:17:48;7.20;;;4.80;;
75847;SDS011;65750;47.540;19.090;2023-02-14T00:20:16;8.45;;;4.10;;
75847;SDS011;65750;47.540;19.090;2023-02-14T00:22:44;8.63;;;4.65;;
75847;SDS011;65750;47.540;19.090;2023-02-14T00:25:12;7.70;;;4.40;;
75847;SDS011;65750;47.540;19.090;2023-02-14T00:27:39;6.57;;;4.25;;
75847;SDS011;65750;47.540;19.090;2023-02-14T00:30:07;7.20;;;4.18;;
75847;SDS011;65750;47.540;19.090;2023-02-14T00:32:37;7.65;;;4.20;;
75847;SDS011;65750;47.540;19.090;2023-02-14T00:35:04;7.62;;;4.68;;
75847;SDS011;65750;47.540;19.090;2023-02-14T00:37:32;7.63;;;4.83;;
75847;SDS011;65750;47.540;19.090;2023-02-14T00:40:01;10.73;;;4.60;;
75847;SDS011;65750;47.540;19.090;2023-02-14T00:42:28;7.05;;;4.20;;
75847;SDS011;65750;47.540;19.090;2023-02-14T00:44:55;7.40;;;4.20;;
75847;SDS011;65750;47.540;19.090;2023-02-14T00:47:23;7.22;;;4.20;;
75847;SDS011;65750;47.540;19.090;2023-02-14T00:49:50;7.70;;;4.27;;
75847;SDS011;65750;47.540;19.090;2023-02-14T00:52:17;7.32;;;4.50;;
75847;SDS011;65750;47.540;19.090;2023-02-14T00:54:45;7.20;;;4.40;;
75847;SDS011;65750;47.540;19.090;2023-02-14T00:57:14;7.90;;;4.70;;
75847;SDS011;65750;47.540;19.090;2023-02-14T00:59:41;8.27;;;4.57;;
75847;SDS011;65750;47.540;19.090;2023-02-14T01:02:08;6.97;;;4.23;;
75847;SDS011;65750;47.540;19.090;2023-02-14T01:04:35;7.75;;;4.60;;
75847;SDS011;65750;47.540;19.090;2023-02-14T01:07:02;6.78;;;4.07;;
75847;SDS011;65750;47.540;19.090;2023-02-14T01:09:30;8.32;;;4.30;;
75847;SDS011;65750;47.540;19.090;2023-02-14T01:12:00;7.68;;;4.53;;
75847;SDS011;65750;47.540;19.090;2023-02-14T01:14:29;6.97;;;4.03;;
75847;SDS011;65750;47.540;19.090;2023-02-14T01:16:56;6.78;;;4.60;;
75847;SDS011;65750;47.540;19.090;2023-02-14T01:19:23;7.55;;;4.50;;
75847;SDS011;65750;47.540;19.090;2023-02-14T01:21:51;6.22;;;3.90;;
75847;SDS011;65750;47.540;19.090;2023-02-14T01:24:21;7.22;;;4.55;;
75847;SDS011;65750;47.540;19.090;2023-02-14T01:26:49;6.53;;;4.30;;
75847;SDS011;65750;47.540;19.090;2023-02-14T01:29:16;6.32;;;4.18;;
75847;SDS011;65750;47.540;19.090;2023-02-14T01:31:45;7.15;;;4.68;;
75847;SDS011;65750;47.540;19.090;2023-02-14T01:34:13;6.80;;;4.40;;
75847;SDS011;65750;47.540;19.090;2023-02-14T01:36:40;7.65;;;4.75;;
75847;SDS011;65750;47.540;19.090;2023-02-14T01:39:09;6.93;;;4.47;;
75847;SDS011;65750;47.540;19.090;2023-02-14T01:41:38;7.28;;;4.47;;
75847;SDS011;65750;47.540;19.090;2023-02-14T01:44:49;7.75;;;4.28;;
75847;SDS011;65750;47.540;19.090;2023-02-14T01:47:14;6.80;;;4.28;;
75847;SDS011;65750;47.540;19.090;2023-02-14T01:49:42;8.23;;;4.68;;
75847;SDS011;65750;47.540;19.090;2023-02-14T01:52:12;7.00;;;4.50;;
75847;SDS011;65750;47.540;19.090;2023-02-14T01:54:40;7.60;;;4.35;;
75847;SDS011;65750;47.540;19.090;2023-02-14T01:57:12;8.63;;;4.50;;
75847;SDS011;65750;47.540;19.090;2023-02-14T01:59:42;7.47;;;4.40;;
75847;SDS011;65750;47.540;19.090;2023-02-14T02:02:14;7.10;;;4.28;;
75847;SDS011;65750;47.540;19.090;2023-02-14T02:04:48;7.50;;;4.30;;
75847;SDS011;65750;47.540;19.090;2023-02-14T02:07:18;7.25;;;4.32;;
75847;SDS011;65750;47.540;19.090;2023-02-14T02:09:49;6.75;;;4.32;;
75847;SDS011;65750;47.540;19.090;2023-02-14T02:12:18;7.60;;;4.22;;
75847;SDS011;65750;47.540;19.090;2023-02-14T02:14:45;7.10;;;4.47;;
75847;SDS011;65750;47.540;19.090;2023-02-14T02:17:17;7.67;;;4.80;;
75847;SDS011;65750;47.540;19.090;2023-02-14T02:22:57;6.78;;;4.43;;
75847;SDS011;65750;47.540;19.090;2023-02-14T02:25:47;7.60;;;4.57;;
75847;SDS011;65750;47.540;19.090;2023-02-14T02:28:36;6.97;;;4.37;;
75847;SDS011;65750;47.540;19.090;2023-02-14T02:31:18;7.33;;;4.57;;
75847;SDS011;65750;47.540;19.090;2023-02-14T02:39:45;7.15;;;4.75;;
75847;SDS011;65750;47.540;19.090;2023-02-14T02:42:22;7.95;;;4.95;;
75847;SDS011;65750;47.540;19.090;2023-02-14T02:44:52;7.20;;;4.10;;
75847;SDS011;65750;47.540;19.090;2023-02-14T02:47:25;7.00;;;4.43;;
75847;SDS011;65750;47.540;19.090;2023-02-14T02:49:57;8.05;;;4.68;;
75847;SDS011;65750;47.540;19.090;2023-02-14T02:52:50;8.60;;;4.80;;
75847;SDS011;65750;47.540;19.090;2023-02-14T02:55:36;7.35;;;4.47;;
75847;SDS011;65750;47.540;19.090;2023-02-14T02:58:28;7.37;;;4.60;;
75847;SDS011;65750;47.540;19.090;2023-02-14T03:00:57;8.02;;;4.68;;
75847;SDS011;65750;47.540;19.090;2023-02-14T03:03:26;7.28;;;4.57;;
75847;SDS011;65750;47.540;19.090;2023-02-14T03:06:13;7.97;;;4.85;;
75847;SDS011;65750;47.540;19.090;2023-02-14T03:08:42;7.85;;;4.90;;
75847;SDS011;65750;47.540;19.090;2023-02-14T03:11:09;7.73;;;4.80;;
75847;SDS011;65750;47.540;19.090;2023-02-14T03:13:46;7.62;;;4.75;;
75847;SDS011;65750;47.540;19.090;2023-02-14T03:16:34;7.90;;;5.00;;
75847;SDS011;65750;47.540;19.090;2023-02-14T03:22:16;7.22;;;4.65;;
75847;SDS011;65750;47.540;19.090;2023-02-14T03:24:51;6.77;;;4.43;;
75847;SDS011;65750;47.540;19.090;2023-02-14T03:27:24;7.85;;;4.57;;
75847;SDS011;65750;47.540;19.090;2023-02-14T03:29:55;7.90;;;4.35;;
75847;SDS011;65750;47.540;19.090;2023-02-14T03:32:28;6.93;;;4.47;;
75847;SDS011;65750;47.540;19.090;2023-02-14T03:35:02;8.68;;;4.90;;
75847;SDS011;65750;47.540;19.090;2023-02-14T03:37:35;6.73;;;4.77;;
75847;SDS011;65750;47.540;19.090;2023-02-14T03:40:08;6.78;;;4.35;;
75847;SDS011;65750;47.540;19.090;2023-02-14T03:42:39;9.05;;;5.10;;
75847;SDS011;65750;47.540;19.090;2023-02-14T03:45:11;8.00;;;5.07;;
75847;SDS011;65750;47.540;19.090;2023-02-14T03:47:40;6.90;;;4.65;;
75847;SDS011;65750;47.540;19.090;2023-02-14T03:50:10;7.37;;;4.70;;
75847;SDS011;65750;47.540;19.090;2023-02-14T03:52:40;8.02;;;4.50;;
75847;SDS011;65750;47.540;19.090;2023-02-14T03:55:13;7.30;;;5.03;;
75847;SDS011;65750;47.540;19.090;2023-02-14T03:57:45;7.32;;;4.70;;
75847;SDS011;65750;47.540;19.090;2023-02-14T04:00:15;7.62;;;5.12;;
75847;SDS011;65750;47.540;19.090;2023-02-14T04:02:44;8.07;;;4.60;;
75847;SDS011;65750;47.540;19.090;2023-02-14T04:05:14;6.93;;;4.75;;
75847;SDS011;65750;47.540;19.090;2023-02-14T04:07:44;7.03;;;4.68;;
75847;SDS011;65750;47.540;19.090;2023-02-14T04:10:14;7.37;;;4.95;;
75847;SDS011;65750;47.540;19.090;2023-02-14T04:12:41;6.97;;;4.40;;
75847;SDS011;65750;47.540;19.090;2023-02-14T04:15:09;7.67;;;5.20;;
75847;SDS011;65750;47.540;19.090;2023-02-14T04:17:37;8.43;;;4.60;;
75847;SDS011;65750;47.540;19.090;2023-02-14T04:20:22;7.87;;;5.10;;
75847;SDS011;65750;47.540;19.090;2023-02-14T04:22:49;8.50;;;5.32;;
75847;SDS011;65750;47.540;19.090;2023-02-14T04:25:18;7.37;;;5.03;;
75847;SDS011;65750;47.540;19.090;2023-02-14T04:27:47;8.00;;;4.73;;
75847;SDS011;65750;47.540;19.090;2023-02-14T04:30:14;7.00;;;4.50;;
75847;SDS011;65750;47.540;19.090;2023-02-14T04:32:42;8.05;;;5.30;;
75847;SDS011;65750;47.540;19.090;2023-02-14T04:35:10;8.27;;;5.10;;
75847;SDS011;65750;47.540;19.090;2023-02-14T04:37:37;7.37;;;4.72;;
75847;SDS011;65750;47.540;19.090;2023-02-14T04:40:04;7.23;;;4.80;;
75847;SDS011;65750;47.540;19.090;2023-02-14T04:42:34;7.78;;;4.78;;
75847;SDS011;65750;47.540;19.090;2023-02-14T04:45:01;6.95;;;4.57;;
75847;SDS011;65750;47.540;19.090;2023-02-14T04:47:28;7.70;;;4.68;;
75847;SDS011;65750;47.540;19.090;2023-02-14T04:49:56;7.55;;;4.43;;
75847;SDS011;65750;47.540;19.090;2023-02-14T04:52:23;6.60;;;4.63;;
75847;SDS011;65750;47.540;19.090;2023-02-14T04:54:50;7.28;;;4.82;;
75847;SDS011;65750;47.540;19.090;2023-02-14T04:57:17;7.18;;;4.70;;
75847;SDS011;65750;47.540;19.090;2023-02-14T04:59:46;7.12;;;4.75;;
75847;SDS011;65750;47.540;19.090;2023-02-14T05:02:13;7.20;;;4.78;;
75847;SDS011;65750;47.540;19.090;2023-02-14T05:04:40;7.23;;;5.00;;
75847;SDS011;65750;47.540;19.090;2023-02-14T05:07:07;7.80;;;4.62;;
75847;SDS011;65750;47.540;19.090;2023-02-14T05:09:34;7.60;;;4.50;;
75847;SDS011;65750;47.540;19.090;2023-02-14T05:12:01;6.93;;;4.57;;
75847;SDS011;65750;47.540;19.090;2023-02-14T05:14:29;7.18;;;4.55;;
75847;SDS011;65750;47.540;19.090;2023-02-14T05:16:57;9.27;;;4.57;;
75847;SDS011;65750;47.540;19.090;2023-02-14T05:19:25;7.65;;;4.62;;
75847;SDS011;65750;47.540;19.090;2023-02-14T05:21:52;6.57;;;4.22;;
75847;SDS011;65750;47.540;19.090;2023-02-14T05:24:20;7.78;;;5.05;;
75847;SDS011;65750;47.540;19.090;2023-02-14T05:26:47;7.45;;;4.45;;
75847;SDS011;65750;47.540;19.090;2023-02-14T05:29:14;6.93;;;4.40;;
75847;SDS011;65750;47.540;19.090;2023-02-14T05:31:41;7.97;;;4.60;;
75847;SDS011;65750;47.540;19.090;2023-02-14T05:34:10;7.05;;;4.35;;
75847;SDS011;65750;47.540;19.090;2023-02-14T05:36:38;7.03;;;4.60;;
75847;SDS011;65750;47.540;19.090;2023-02-14T05:39:05;9.20;;;4.37;;
75847;SDS011;65750;47.540;19.090;2023-02-14T05:41:32;6.93;;;4.50;;
75847;SDS011;65750;47.540;19.090;2023-02-14T05:44:00;6.68;;;4.57;;
75847;SDS011;65750;47.540;19.090;2023-02-14T05:46:27;7.05;;;4.50;;
75847;SDS011;65750;47.540;19.090;2023-02-14T05:48:55;6.75;;;4.35;;
75847;SDS011;65750;47.540;19.090;2023-02-14T05:51:23;7.10;;;4.47;;
75847;SDS011;65750;47.540;19.090;2023-02-14T05:53:50;6.30;;;4.10;;
75847;SDS011;65750;47.540;19.090;2023-02-14T05:56:17;8.23;;;4.35;;
75847;SDS011;65750;47.540;19.090;2023-02-14T05:58:45;8.20;;;4.78;;
75847;SDS011;65750;47.540;19.090;2023-02-14T06:01:12;6.82;;;4.28;;
75847;SDS011;65750;47.540;19.090;2023-02-14T06:03:39;7.53;;;4.75;;
75847;SDS011;65750;47.540;19.090;2023-02-14T06:06:06;6.80;;;4.43;;
75847;SDS011;65750;47.540;19.090;2023-02-14T06:08:35;6.62;;;4.53;;
75847;SDS011;65750;47.540;19.090;2023-02-14T06:11:02;6.53;;;4.47;;
75847;SDS011;65750;47.540;19.090;2023-02-14T06:13:30;6.75;;;4.50;;
75847;SDS011;65750;47.540;19.090;2023-02-14T06:15:57;8.05;;;4.60;;
75847;SDS011;65750;47.540;19.090;2023-02-14T06:18:24;7.33;;;4.17;;
75847;SDS011;65750;47.540;19.090;2023-02-14T06:20:53;7.50;;;4.05;;
75847;SDS011;65750;47.540;19.090;2023-02-14T06:23:21;6.87;;;4.62;;
75847;SDS011;65750;47.540;19.090;2023-02-14T06:25:50;7.05;;;4.28;;
75847;SDS011;65750;47.540;19.090;2023-02-14T06:28:17;7.12;;;4.62;;
75847;SDS011;65750;47.540;19.090;2023-02-14T06:30:44;6.33;;;3.80;;
75847;SDS011;65750;47.540;19.090;2023-02-14T06:33:12;7.32;;;4.47;;
75847;SDS011;65750;47.540;19.090;2023-02-14T06:35:39;6.87;;;4.68;;
75847;SDS011;65750;47.540;19.090;2023-02-14T06:38:06;7.12;;;4.10;;
75847;SDS011;65750;47.540;19.090;2023-02-14T06:40:34;6.25;;;4.10;;
75847;SDS011;65750;47.540;19.090;2023-02-14T06:43:02;6.17;;;4.20;;
75847;SDS011;65750;47.540;19.090;2023-02-14T06:45:29;7.15;;;4.62;;
75847;SDS011;65750;47.540;19.090;2023-02-14T06:47:56;7.68;;;4.90;;
75847;SDS011;65750;47.540;19.090;2023-02-14T06:50:24;7.53;;;4.87;;
75847;SDS011;65750;47.540;19.090;2023-02-14T06:52:51;8.30;;;5.20;;
75847;SDS011;65750;47.540;19.090;2023-02-14T06:55:19;9.07;;;4.87;;
75847;SDS011;65750;47.540;19.090;2023-02-14T06:57:46;11.32;;;5.40;;
75847;SDS011;65750;47.540;19.090;2023-02-14T07:00:15;14.60;;;5.65;;
75847;SDS011;65750;47.540;19.090;2023-02-14T07:02:44;13.32;;;5.60;;
75847;SDS011;65750;47.540;19.090;2023-02-14T07:05:11;10.32;;;5.60;;
75847;SDS011;65750;47.540;19.090;2023-02-14T07:07:40;9.80;;;5.70;;
75847;SDS011;65750;47.540;19.090;2023-02-14T07:10:07;9.07;;;5.57;;
75847;SDS011;65750;47.540;19.090;2023-02-14T07:12:35;11.70;;;6.28;;
75847;SDS011;65750;47.540;19.090;2023-02-14T07:15:04;9.07;;;5.82;;
75847;SDS011;65750;47.540;19.090;2023-02-14T07:17:32;9.48;;;6.55;;
75847;SDS011;65750;47.540;19.090;2023-02-14T07:20:00;10.27;;;6.40;;
75847;SDS011;65750;47.540;19.090;2023-02-14T07:22:27;11.52;;;6.80;;
75847;SDS011;65750;47.540;19.090;2023-02-14T07:24:55;11.27;;;6.68;;
75847;SDS011;65750;47.540;19.090;2023-02-14T07:27:22;11.45;;;6.75;;
75847;SDS011;65750;47.540;19.090;2023-02-14T07:29:49;11.20;;;7.18;;
75847;SDS011;65750;47.540;19.090;2023-02-14T07:32:16;12.00;;;7.30;;
75847;SDS011;65750;47.540;19.090;2023-02-14T07:34:45;12.68;;;7.40;;
75847;SDS011;65750;47.540;19.090;2023-02-14T07:37:12;22.20;;;9.65;;
75847;SDS011;65750;47.540;19.090;2023-02-14T07:39:41;64.25;;;17.02;;
75847;SDS011;65750;47.540;19.090;2023-02-14T07:42:08;70.15;;;18.70;;
75847;SDS011;65750;47.540;19.090;2023-02-14T07:44:36;61.30;;;17.43;;
75847;SDS011;65750;47.540;19.090;2023-02-14T07:47:03;66.65;;;17.10;;
75847;SDS011;65750;47.540;19.090;2023-02-14T07:49:30;63.30;;;17.50;;
75847;SDS011;65750;47.540;19.090;2023-02-14T07:51:59;65.32;;;17.15;;
75847;SDS011;65750;47.540;19.090;2023-02-14T07:54:27;64.65;;;19.77;;
75847;SDS011;65750;47.540;19.090;2023-02-14T07:56:54;54.63;;;17.87;;
75847;SDS011;65750;47.540;19.090;2023-02-14T07:59:21;61.63;;;17.73;;
75847;SDS011;65750;47.540;19.090;2023-02-14T08:01:49;64.07;;;17.55;;
75847;SDS011;65750;47.540;19.090;2023-02-14T08:04:18;54.65;;;17.42;;
75847;SDS011;65750;47.540;19.090;2023-02-14T08:06:45;56.67;;;16.05;;
75847;SDS011;65750;47.540;19.090;2023-02-14T08:09:14;54.63;;;16.27;;
75847;SDS011;65750;47.540;19.090;2023-02-14T08:11:49;55.10;;;16.65;;
75847;SDS011;65750;47.540;19.090;2023-02-14T08:14:34;56.22;;;17.25;;
75847;SDS011;65750;47.540;19.090;2023-02-14T08:17:01;49.92;;;17.20;;
75847;SDS011;65750;47.540;19.090;2023-02-14T08:19:29;46.85;;;16.83;;
75847;SDS011;65750;47.540;19.090;2023-02-14T08:21:56;59.63;;;17.17;;
75847;SDS011;65750;47.540;19.090;2023-02-14T08:24:25;52.88;;;17.20;;
75847;SDS011;65750;47.540;19.090;2023-02-14T08:26:52;51.80;;;17.00;;
75847;SDS011;65750;47.540;19.090;2023-02-14T08:29:19;47.20;;;15.75;;
75847;SDS011;65750;47.540;19.090;2023-02-14T08:31:46;50.70;;;16.75;;
75847;SDS011;65750;47.540;19.090;2023-02-14T08:34:14;56.83;;;16.73;;
75847;SDS011;65750;47.540;19.090;2023-02-14T08:36:41;50.75;;;16.45;;
75847;SDS011;65750;47.540;19.090;2023-02-14T08:39:09;52.58;;;16.58;;
75847;SDS011;65750;47.540;19.090;2023-02-14T08:41:37;41.05;;;15.63;;
75847;SDS011;65750;47.540;19.090;2023-02-14T08:44:05;44.22;;;15.38;;
75847;SDS011;65750;47.540;19.090;2023-02-14T08:46:32;48.20;;;15.40;;
75847;SDS011;65750;47.540;19.090;2023-02-14T08:48:59;42.35;;;15.52;;
75847;SDS011;65750;47.540;19.090;2023-02-14T08:51:26;43.20;;;15.57;;
75847;SDS011;65750;47.540;19.090;2023-02-14T08:53:54;40.85;;;15.15;;
75847;SDS011;65750;47.540;19.090;2023-02-14T08:56:21;41.33;;;14.80;;
75847;SDS011;65750;47.540;19.090;2023-02-14T08:58:51;42.53;;;15.30;;
75847;SDS011;65750;47.540;19.090;2023-02-14T09:01:19;40.08;;;15.25;;
75847;SDS011;65750;47.540;19.090;2023-02-14T09:03:47;36.63;;;15.15;;
75847;SDS011;65750;47.540;19.090;2023-02-14T09:06:15;46.90;;;15.50;;
75847;SDS011;65750;47.540;19.090;2023-02-14T09:08:43;35.58;;;14.20;;
75847;SDS011;65750;47.540;19.090;2023-02-14T09:11:11;36.50;;;14.67;;
75847;SDS011;65750;47.540;19.090;2023-02-14T09:13:40;38.72;;;14.70;;
75847;SDS011;65750;47.540;19.090;2023-02-14T09:16:09;37.08;;;15.10;;
75847;SDS011;65750;47.540;19.090;2023-02-14T09:18:37;38.97;;;15.07;;
75847;SDS011;65750;47.540;19.090;2023-02-14T09:21:08;40.25;;;14.82;;
75847;SDS011;65750;47.540;19.090;2023-02-14T09:23:36;38.67;;;14.50;;
75847;SDS011;65750;47.540;19.090;2023-02-14T09:26:04;33.78;;;14.00;;
75847;SDS011;65750;47.540;19.090;2023-02-14T09:28:33;40.10;;;14.50;;
75847;SDS011;65750;47.540;19.090;2023-02-14T09:31:07;33.90;;;14.38;;
75847;SDS011;65750;47.540;19.090;2023-02-14T09:33:35;35.00;;;13.43;;
75847;SDS011;65750;47.540;19.090;2023-02-14T09:36:20;32.50;;;13.77;;
75847;SDS011;65750;47.540;19.090;2023-02-14T09:39:05;41.37;;;13.98;;
75847;SDS011;65750;47.540;19.090;2023-02-14T09:41:45;36.30;;;13.93;;
75847;SDS011;65750;47.540;19.090;2023-02-14T09:44:41;36.53;;;13.62;;
75847;SDS011;65750;47.540;19.090;2023-02-14T09:47:14;36.15;;;13.95;;
75847;SDS011;65750;47.540;19.090;2023-02-14T09:49:45;37.30;;;13.53;;
75847;SDS011;65750;47.540;19.090;2023-02-14T09:52:14;33.33;;;13.30;;
75847;SDS011;65750;47.540;19.090;2023-02-14T09:54:43;32.08;;;13.20;;
75847;SDS011;65750;47.540;19.090;2023-02-14T09:57:14;37.42;;;14.05;;
75847;SDS011;65750;47.540;19.090;2023-02-14T09:59:48;32.67;;;13.73;;
75847;SDS011;65750;47.540;19.090;2023-02-14T10:02:21;29.23;;;12.80;;
75847;SDS011;65750;47.540;19.090;2023-02-14T10:05:00;33.88;;;13.13;;
75847;SDS011;65750;47.540;19.090;2023-02-14T10:07:33;29.77;;;13.15;;
75847;SDS011;65750;47.540;19.090;2023-02-14T10:10:09;29.58;;;12.15;;
75847;SDS011;65750;47.540;19.090;2023-02-14T10:12:41;29.95;;;12.37;;
75847;SDS011;65750;47.540;19.090;2023-02-14T10:15:12;27.07;;;12.43;;
75847;SDS011;65750;47.540;19.090;2023-02-14T10:17:43;30.25;;;13.07;;
75847;SDS011;65750;47.540;19.090;2023-02-14T10:20:18;27.80;;;12.35;;
75847;SDS011;65750;47.540;19.090;2023-02-14T10:22:49;30.60;;;12.70;;
75847;SDS011;65750;47.540;19.090;2023-02-14T10:25:22;33.25;;;12.80;;
75847;SDS011;65750;47.540;19.090;2023-02-14T10:27:51;33.77;;;12.30;;
75847;SDS011;65750;47.540;19.090;2023-02-14T10:30:20;28.65;;;11.85;;
75847;SDS011;65750;47.540;19.090;2023-02-14T10:32:53;32.47;;;12.00;;
75847;SDS011;65750;47.540;19.090;2023-02-14T10:35:26;37.08;;;12.75;;
75847;SDS011;65750;47.540;19.090;2023-02-14T10:38:00;27.17;;;11.23;;
75847;SDS011;65750;47.540;19.090;2023-02-14T10:43:32;27.60;;;11.45;;
75847;SDS011;65750;47.540;19.090;2023-02-14T10:46:04;28.95;;;12.20;;
75847;SDS011;65750;47.540;19.090;2023-02-14T10:48:40;27.13;;;12.05;;
75847;SDS011;65750;47.540;19.090;2023-02-14T10:51:14;27.58;;;12.25;;
75847;SDS011;65750;47.540;19.090;2023-02-14T10:53:45;26.97;;;11.73;;
75847;SDS011;65750;47.540;19.090;2023-02-14T10:56:19;24.08;;;11.68;;
75847;SDS011;65750;47.540;19.090;2023-02-14T10:58:48;23.98;;;10.90;;
75847;SDS011;65750;47.540;19.090;2023-02-14T11:01:16;24.08;;;11.52;;
75847;SDS011;65750;47.540;19.090;2023-02-14T11:03:49;25.05;;;11.10;;
75847;SDS011;65750;47.540;19.090;2023-02-14T11:06:18;26.17;;;11.80;;
75847;SDS011;65750;47.540;19.090;2023-02-14T11:08:45;26.00;;;11.40;;
75847;SDS011;65750;47.540;19.090;2023-02-14T11:11:14;26.40;;;11.82;;
75847;SDS011;65750;47.540;19.090;2023-02-14T11:13:43;23.42;;;11.38;;
75847;SDS011;65750;47.540;19.090;2023-02-14T11:16:10;24.63;;;11.35;;
75847;SDS011;65750;47.540;19.090;2023-02-14T11:18:39;22.17;;;11.00;;
75847;SDS011;65750;47.540;19.090;2023-02-14T11:21:09;23.10;;;10.75;;
75847;SDS011;65750;47.540;19.090;2023-02-14T11:23:38;24.50;;;10.27;;
75847;SDS011;65750;47.540;19.090;2023-02-14T11:26:15;20.85;;;10.15;;
75847;SDS011;65750;47.540;19.090;2023-02-14T11:28:50;22.08;;;10.65;;
75847;SDS011;65750;47.540;19.090;2023-02-14T11:31:23;20.30;;;10.27;;
75847;SDS011;65750;47.540;19.090;2023-02-14T11:33:52;20.23;;;10.05;;
75847;SDS011;65750;47.540;19.090;2023-02-14T11:36:21;22.33;;;10.32;;
75847;SDS011;65750;47.540;19.090;2023-02-14T11:38:53;22.35;;;9.75;;
75847;SDS011;65750;47.540;19.090;2023-02-14T11:41:22;17.90;;;9.13;;
75847;SDS011;65750;47.540;19.090;2023-02-14T11:43:50;19.87;;;9.07;;
75847;SDS011;65750;47.540;19.090;2023-02-14T11:46:24;19.52;;;9.18;;
75847;SDS011;65750;47.540;19.090;2023-02-14T11:48:54;18.77;;;9.10;;
75847;SDS011;65750;47.540;19.090;2023-02-14T11:51:27;20.15;;;9.43;;
75847;SDS011;65750;47.540;19.090;2023-02-14T11:53:57;18.75;;;9.48;;
75847;SDS011;65750;47.540;19.090;2023-02-14T11:56:43;17.47;;;8.73;;
75847;SDS011;65750;47.540;19.090;2023-02-14T11:59:21;16.25;;;8.77;;
75847;SDS011;65750;47.540;19.090;2023-02-14T12:01:52;18.33;;;9.45;;
75847;SDS011;65750;47.540;19.090;2023-02-14T12:04:30;19.37;;;9.30;;
75847;SDS011;65750;47.540;19.090;2023-02-14T12:07:13;17.42;;;9.18;;
75847;SDS011;65750;47.540;19.090;2023-02-14T12:09:45;17.90;;;8.83;;
75847;SDS011;65750;47.540;19.090;2023-02-14T12:12:17;17.02;;;8.70;;
75847;SDS011;65750;47.540;19.090;2023-02-14T12:14:46;17.52;;;9.15;;
75847;SDS011;65750;47.540;19.090;2023-02-14T12:17:17;15.80;;;8.40;;
75847;SDS011;65750;47.540;19.090;2023-02-14T12:19:50;16.37;;;8.70;;
75847;SDS011;65750;47.540;19.090;2023-02-14T12:22:22;16.77;;;8.73;;
75847;SDS011;65750;47.540;19.090;2023-02-14T12:24:53;18.05;;;8.70;;
75847;SDS011;65750;47.540;19.090;2023-02-14T12:27:26;17.25;;;9.85;;
75847;SDS011;65750;47.540;19.090;2023-02-14T12:29:58;16.70;;;8.50;;
75847;SDS011;65750;47.540;19.090;2023-02-14T12:32:28;15.52;;;8.35;;
75847;SDS011;65750;47.540;19.090;2023-02-14T12:34:59;15.57;;;8.13;;
75847;SDS011;65750;47.540;19.090;2023-02-14T12:37:33;16.60;;;8.35;;
75847;SDS011;65750;47.540;19.090;2023-02-14T12:40:09;16.10;;;8.30;;
75847;SDS011;65750;47.540;19.090;2023-02-14T12:42:46;16.80;;;7.95;;
75847;SDS011;65750;47.540;19.090;2023-02-14T12:45:20;16.75;;;8.55;;
75847;SDS011;65750;47.540;19.090;2023-02-14T12:47:54;16.67;;;8.00;;
75847;SDS011;65750;47.540;19.090;2023-02-14T12:50:28;14.35;;;8.18;;
75847;SDS011;65750;47.540;19.090;2023-02-14T12:53:04;14.68;;;8.00;;
75847;SDS011;65750;47.540;19.090;2023-02-14T12:55:46;16.70;;;8.60;;
75847;SDS011;65750;47.540;19.090;2023-02-14T12:58:22;14.55;;;8.52;;
75847;SDS011;65750;47.540;19.090;2023-02-14T13:00:57;14.43;;;7.40;;
75847;SDS011;65750;47.540;19.090;2023-02-14T13:06:55;16.48;;;8.10;;
75847;SDS011;65750;47.540;19.090;2023-02-14T13:09:28;13.40;;;7.75;;
75847;SDS011;65750;47.540;19.090;2023-02-14T13:12:05;14.07;;;7.50;;
75847;SDS011;65750;47.540;19.090;2023-02-14T13:14:40;12.70;;;7.67;;
75847;SDS011;65750;47.540;19.090;2023-02-14T13:17:18;13.48;;;7.05;;
75847;SDS011;65750;47.540;19.090;2023-02-14T13:19:50;16.17;;;7.82;;
75847;SDS011;65750;47.540;19.090;2023-02-14T13:22:22;13.05;;;7.65;;
75847;SDS011;65750;47.540;19.090;2023-02-14T13:24:52;14.15;;;7.10;;
75847;SDS011;65750;47.540;19.090;2023-02-14T13:27:25;12.17;;;7.10;;
75847;SDS011;65750;47.540;19.090;2023-02-14T13:29:54;13.73;;;7.82;;
75847;SDS011;65750;47.540;19.090;2023-02-14T13:32:24;12.82;;;7.30;;
75847;SDS011;65750;47.540;19.090;2023-02-14T13:34:54;13.15;;;7.28;;
75847;SDS011;65750;47.540;19.090;2023-02-14T13:37:22;13.43;;;7.25;;
75847;SDS011;65750;47.540;19.090;2023-02-14T13:39:54;13.07;;;6.80;;
75847;SDS011;65750;47.540;19.090;2023-02-14T13:48:17;12.52;;;7.15;;
75847;SDS011;65750;47.540;19.090;2023-02-14T13:50:50;11.00;;;6.97;;
75847;SDS011;65750;47.540;19.090;2023-02-14T13:53:29;12.33;;;7.10;;
75847;SDS011;65750;47.540;19.090;2023-02-14T13:56:04;11.32;;;6.65;;
75847;SDS011;65750;47.540;19.090;2023-02-14T13:58:54;13.90;;;6.82;;
75847;SDS011;65750;47.540;19.090;2023-02-14T14:01:28;12.48;;;6.90;;
75847;SDS011;65750;47.540;19.090;2023-02-14T14:09:53;10.55;;;6.47;;
75847;SDS011;65750;47.540;19.090;2023-02-14T14:12:37;11.32;;;6.93;;
75847;SDS011;65750;47.540;19.090;2023-02-14T14:15:11;11.38;;;6.68;;
75847;SDS011;65750;47.540;19.090;2023-02-14T14:17:43;12.50;;;7.07;;
75847;SDS011;65750;47.540;19.090;2023-02-14T14:20:37;11.03;;;6.27;;
75847;SDS011;65750;47.540;19.090;2023-02-14T14:25:58;11.40;;;6.28;;
75847;SDS011;65750;47.540;19.090;2023-02-14T14:28:27;11.07;;;6.35;;
75847;SDS011;65750;47.540;19.090;2023-02-14T14:30:58;15.55;;;6.87;;
75847;SDS011;65750;47.540;19.090;2023-02-14T14:33:27;20.70;;;7.90;;
75847;SDS011;65750;47.540;19.090;2023-02-14T14:35:56;24.58;;;8.13;;
75847;SDS011;65750;47.540;19.090;2023-02-14T14:38:26;36.55;;;9.18;;
75847;SDS011;65750;47.540;19.090;2023-02-14T14:40:54;24.83;;;7.93;;
75847;SDS011;65750;47.540;19.090;2023-02-14T14:43:23;25.17;;;8.05;;
75847;SDS011;65750;47.540;19.090;2023-02-14T14:45:52;26.57;;;9.07;;
75847;SDS011;65750;47.540;19.090;2023-02-14T14:48:25;25.75;;;7.82;;
75847;SDS011;65750;47.540;19.090;2023-02-14T14:50:54;20.75;;;8.07;;
75847;SDS011;65750;47.540;19.090;2023-02-14T14:53:23;24.98;;;7.53;;
75847;SDS011;65750;47.540;19.090;2023-02-14T14:55:53;21.15;;;7.60;;
75847;SDS011;65750;47.540;19.090;2023-02-14T14:58:28;22.17;;;7.47;;
75847;SDS011;65750;47.540;19.090;2023-02-14T15:01:01;21.35;;;8.27;;
75847;SDS011;65750;47.540;19.090;2023-02-14T15:03:30;19.77;;;7.60;;
75847;SDS011;65750;47.540;19.090;2023-02-14T15:06:02;24.33;;;7.97;;
75847;SDS011;65750;47.540;19.090;2023-02-14T15:08:35;16.37;;;7.53;;
75847;SDS011;65750;47.540;19.090;2023-02-14T15:11:03;19.67;;;7.60;;
75847;SDS011;65750;47.540;19.090;2023-02-14T15:13:35;18.17;;;7.97;;
75847;SDS011;65750;47.540;19.090;2023-02-14T15:16:18;20.33;;;7.85;;